sensor_id;sensor_type;location;lat;lon;timestamp;P1;durP1;ratioP1;P2;durP2;ratioP2
51122;SDS011;37162;41.724;13.346;2024-01-06T00:00:20;5.07;;;1.80;;
51122;SDS011;37162;41.724;13.346;2024-01-06T00:02:48;2.03;;;1.40;;
51122;SDS011;37162;41.724;13.346;2024-01-06T00:05:13;4.47;;;1.92;;
51122;SDS011;37162;41.724;13.346;2024-01-06T00:07:39;4.40;;;2.05;;
51122;SDS011;37162;41.724;13.346;2024-01-06T00:10:05;4.85;;;1.50;;
51122;SDS011;37162;41.724;13.346;2024-01-06T00:12:31;2.60;;;1.52;;
51122;SDS011;37162;41.724;13.346;2024-01-06T00:14:56;2.78;;;1.52;;
51122;SDS011;37162;41.724;13.346;2024-01-06T00:17:22;3.60;;;2.00;;
51122;SDS011;37162;41.724;13.346;2024-01-06T00:19:47;2.13;;;1.50;;
51122;SDS011;37162;41.724;13.346;2024-01-06T00:22:16;3.17;;;1.63;;
51122;SDS011;37162;41.724;13.346;2024-01-06T00:24:42;2.50;;;1.67;;
51122;SDS011;37162;41.724;13.346;2024-01-06T00:27:08;3.05;;;1.90;;
51122;SDS011;37162;41.724;13.346;2024-01-06T00:29:33;2.78;;;1.63;;
51122;SDS011;37162;41.724;13.346;2024-01-06T00:31:59;2.92;;;1.48;;
51122;SDS011;37162;41.724;13.346;2024-01-06T00:34:24;3.47;;;1.88;;
51122;SDS011;37162;41.724;13.346;2024-01-06T00:36:49;2.72;;;1.70;;
51122;SDS011;37162;41.724;13.346;2024-01-06T00:39:15;3.33;;;1.50;;
51122;SDS011;37162;41.724;13.346;2024-01-06T00:41:40;4.75;;;1.98;;
51122;SDS011;37162;41.724;13.346;2024-01-06T00:44:06;3.05;;;1.63;;
51122;SDS011;37162;41.724;13.346;2024-01-06T00:46:31;3.33;;;1.40;;
51122;SDS011;37162;41.724;13.346;2024-01-06T00:48:57;2.35;;;1.40;;
51122;SDS011;37162;41.724;13.346;2024-01-06T00:51:22;4.28;;;1.42;;
51122;SDS011;37162;41.724;13.346;2024-01-06T00:53:47;3.08;;;1.50;;
51122;SDS011;37162;41.724;13.346;2024-01-06T00:56:13;3.58;;;1.48;;
51122;SDS011;37162;41.724;13.346;2024-01-06T00:58:38;2.63;;;1.50;;
51122;SDS011;37162;41.724;13.346;2024-01-06T01:01:04;4.10;;;1.30;;
51122;SDS011;37162;41.724;13.346;2024-01-06T01:03:29;3.88;;;1.52;;
51122;SDS011;37162;41.724;13.346;2024-01-06T01:05:55;2.60;;;1.30;;
51122;SDS011;37162;41.724;13.346;2024-01-06T01:08:20;2.60;;;1.75;;
51122;SDS011;37162;41.724;13.346;2024-01-06T01:10:46;2.83;;;1.52;;
51122;SDS011;37162;41.724;13.346;2024-01-06T01:13:11;2.60;;;1.52;;
51122;SDS011;37162;41.724;13.346;2024-01-06T01:15:36;2.00;;;1.40;;
51122;SDS011;37162;41.724;13.346;2024-01-06T01:18:02;3.55;;;1.60;;
51122;SDS011;37162;41.724;13.346;2024-01-06T01:20:27;2.15;;;1.52;;
51122;SDS011;37162;41.724;13.346;2024-01-06T01:22:53;1.65;;;1.50;;
51122;SDS011;37162;41.724;13.346;2024-01-06T01:25:18;3.53;;;1.40;;
51122;SDS011;37162;41.724;13.346;2024-01-06T01:27:44;4.35;;;1.52;;
51122;SDS011;37162;41.724;13.346;2024-01-06T01:30:09;3.15;;;1.42;;
51122;SDS011;37162;41.724;13.346;2024-01-06T01:32:35;2.88;;;1.58;;
51122;SDS011;37162;41.724;13.346;2024-01-06T01:35:00;3.15;;;1.50;;
51122;SDS011;37162;41.724;13.346;2024-01-06T01:37:26;5.00;;;1.70;;
51122;SDS011;37162;41.724;13.346;2024-01-06T01:39:51;2.72;;;1.40;;
51122;SDS011;37162;41.724;13.346;2024-01-06T01:42:16;4.47;;;1.80;;
51122;SDS011;37162;41.724;13.346;2024-01-06T01:44:42;2.95;;;1.80;;
51122;SDS011;37162;41.724;13.346;2024-01-06T01:47:07;4.20;;;1.58;;
51122;SDS011;37162;41.724;13.346;2024-01-06T01:49:33;2.10;;;1.55;;
51122;SDS011;37162;41.724;13.346;2024-01-06T01:51:59;4.22;;;1.77;;
51122;SDS011;37162;41.724;13.346;2024-01-06T01:54:24;3.40;;;1.73;;
51122;SDS011;37162;41.724;13.346;2024-01-06T01:56:50;3.17;;;1.63;;
51122;SDS011;37162;41.724;13.346;2024-01-06T01:59:17;2.78;;;1.80;;
51122;SDS011;37162;41.724;13.346;2024-01-06T02:01:44;2.83;;;1.48;;
51122;SDS011;37162;41.724;13.346;2024-01-06T02:04:10;2.63;;;1.20;;
51122;SDS011;37162;41.724;13.346;2024-01-06T02:06:36;2.85;;;1.75;;
51122;SDS011;37162;41.724;13.346;2024-01-06T02:09:01;2.72;;;1.73;;
51122;SDS011;37162;41.724;13.346;2024-01-06T02:11:27;3.10;;;1.80;;
51122;SDS011;37162;41.724;13.346;2024-01-06T02:13:52;3.00;;;1.80;;
51122;SDS011;37162;41.724;13.346;2024-01-06T02:16:18;3.65;;;1.55;;
51122;SDS011;37162;41.724;13.346;2024-01-06T02:18:43;3.67;;;1.67;;
51122;SDS011;37162;41.724;13.346;2024-01-06T02:21:09;4.32;;;1.38;;
51122;SDS011;37162;41.724;13.346;2024-01-06T02:23:36;3.95;;;1.83;;
51122;SDS011;37162;41.724;13.346;2024-01-06T02:26:02;4.32;;;1.52;;
51122;SDS011;37162;41.724;13.346;2024-01-06T02:28:27;3.20;;;1.70;;
51122;SDS011;37162;41.724;13.346;2024-01-06T02:30:53;1.95;;;1.48;;
51122;SDS011;37162;41.724;13.346;2024-01-06T02:33:18;4.15;;;1.88;;
51122;SDS011;37162;41.724;13.346;2024-01-06T02:35:45;3.38;;;1.65;;
51122;SDS011;37162;41.724;13.346;2024-01-06T02:38:11;3.28;;;1.90;;
51122;SDS011;37162;41.724;13.346;2024-01-06T02:40:36;4.55;;;1.45;;
51122;SDS011;37162;41.724;13.346;2024-01-06T02:43:02;2.53;;;1.50;;
51122;SDS011;37162;41.724;13.346;2024-01-06T02:45:27;2.03;;;1.35;;
51122;SDS011;37162;41.724;13.346;2024-01-06T02:47:53;3.05;;;1.58;;
51122;SDS011;37162;41.724;13.346;2024-01-06T02:50:18;5.85;;;1.42;;
51122;SDS011;37162;41.724;13.346;2024-01-06T02:52:44;5.63;;;1.48;;
51122;SDS011;37162;41.724;13.346;2024-01-06T02:55:12;3.53;;;1.63;;
51122;SDS011;37162;41.724;13.346;2024-01-06T02:57:38;3.78;;;1.60;;
51122;SDS011;37162;41.724;13.346;2024-01-06T03:00:06;3.22;;;1.27;;
51122;SDS011;37162;41.724;13.346;2024-01-06T03:02:32;3.08;;;1.75;;
51122;SDS011;37162;41.724;13.346;2024-01-06T03:04:58;4.85;;;1.80;;
51122;SDS011;37162;41.724;13.346;2024-01-06T03:07:23;3.03;;;1.55;;
51122;SDS011;37162;41.724;13.346;2024-01-06T03:09:49;4.43;;;1.70;;
51122;SDS011;37162;41.724;13.346;2024-01-06T03:12:14;4.50;;;1.60;;
51122;SDS011;37162;41.724;13.346;2024-01-06T03:14:40;3.55;;;1.60;;
51122;SDS011;37162;41.724;13.346;2024-01-06T03:17:05;3.45;;;1.92;;
51122;SDS011;37162;41.724;13.346;2024-01-06T03:19:31;2.47;;;1.50;;
51122;SDS011;37162;41.724;13.346;2024-01-06T03:21:56;3.05;;;1.77;;
51122;SDS011;37162;41.724;13.346;2024-01-06T03:24:22;2.10;;;1.33;;
51122;SDS011;37162;41.724;13.346;2024-01-06T03:26:49;1.95;;;1.17;;
51122;SDS011;37162;41.724;13.346;2024-01-06T03:29:14;2.55;;;1.30;;
51122;SDS011;37162;41.724;13.346;2024-01-06T03:31:43;2.28;;;1.33;;
51122;SDS011;37162;41.724;13.346;2024-01-06T03:34:09;3.80;;;1.42;;
51122;SDS011;37162;41.724;13.346;2024-01-06T03:36:38;2.20;;;1.30;;
51122;SDS011;37162;41.724;13.346;2024-01-06T03:39:04;3.13;;;1.52;;
51122;SDS011;37162;41.724;13.346;2024-01-06T03:41:29;1.65;;;1.25;;
51122;SDS011;37162;41.724;13.346;2024-01-06T03:43:55;2.90;;;1.67;;
51122;SDS011;37162;41.724;13.346;2024-01-06T03:46:21;3.90;;;1.42;;
51122;SDS011;37162;41.724;13.346;2024-01-06T03:48:47;3.50;;;1.38;;
51122;SDS011;37162;41.724;13.346;2024-01-06T03:51:12;3.20;;;1.40;;
51122;SDS011;37162;41.724;13.346;2024-01-06T03:53:38;3.00;;;1.40;;
51122;SDS011;37162;41.724;13.346;2024-01-06T03:56:05;2.65;;;1.50;;
51122;SDS011;37162;41.724;13.346;2024-01-06T03:58:30;6.30;;;1.50;;
51122;SDS011;37162;41.724;13.346;2024-01-06T04:00:56;3.17;;;1.70;;
51122;SDS011;37162;41.724;13.346;2024-01-06T04:03:21;2.42;;;1.33;;
51122;SDS011;37162;41.724;13.346;2024-01-06T04:05:46;4.18;;;1.50;;
51122;SDS011;37162;41.724;13.346;2024-01-06T04:08:12;1.35;;;1.17;;
51122;SDS011;37162;41.724;13.346;2024-01-06T04:10:37;2.05;;;1.42;;
51122;SDS011;37162;41.724;13.346;2024-01-06T04:13:04;2.80;;;1.58;;
51122;SDS011;37162;41.724;13.346;2024-01-06T04:15:29;2.90;;;1.42;;
51122;SDS011;37162;41.724;13.346;2024-01-06T04:17:55;3.33;;;1.30;;
51122;SDS011;37162;41.724;13.346;2024-01-06T04:20:20;2.55;;;1.50;;
51122;SDS011;37162;41.724;13.346;2024-01-06T04:22:46;1.88;;;1.30;;
51122;SDS011;37162;41.724;13.346;2024-01-06T04:25:11;2.30;;;1.50;;
51122;SDS011;37162;41.724;13.346;2024-01-06T04:27:36;2.17;;;1.30;;
51122;SDS011;37162;41.724;13.346;2024-01-06T04:30:02;1.30;;;1.20;;
51122;SDS011;37162;41.724;13.346;2024-01-06T04:32:28;3.28;;;1.40;;
51122;SDS011;37162;41.724;13.346;2024-01-06T04:34:54;2.95;;;1.60;;
51122;SDS011;37162;41.724;13.346;2024-01-06T04:37:19;3.90;;;2.20;;
51122;SDS011;37162;41.724;13.346;2024-01-06T04:39:44;1.67;;;1.20;;
51122;SDS011;37162;41.724;13.346;2024-01-06T04:42:10;2.75;;;1.30;;
51122;SDS011;37162;41.724;13.346;2024-01-06T04:44:35;2.13;;;1.08;;
51122;SDS011;37162;41.724;13.346;2024-01-06T04:47:01;4.40;;;1.40;;
51122;SDS011;37162;41.724;13.346;2024-01-06T04:49:26;4.22;;;1.67;;
51122;SDS011;37162;41.724;13.346;2024-01-06T04:51:52;4.28;;;1.42;;
51122;SDS011;37162;41.724;13.346;2024-01-06T04:54:17;2.22;;;1.48;;
51122;SDS011;37162;41.724;13.346;2024-01-06T04:56:42;2.92;;;1.38;;
51122;SDS011;37162;41.724;13.346;2024-01-06T04:59:08;3.90;;;1.35;;
51122;SDS011;37162;41.724;13.346;2024-01-06T05:01:33;2.85;;;1.40;;
51122;SDS011;37162;41.724;13.346;2024-01-06T05:03:59;2.58;;;1.42;;
51122;SDS011;37162;41.724;13.346;2024-01-06T05:06:24;2.75;;;1.25;;
51122;SDS011;37162;41.724;13.346;2024-01-06T05:08:50;2.55;;;1.45;;
51122;SDS011;37162;41.724;13.346;2024-01-06T05:11:16;3.58;;;1.73;;
51122;SDS011;37162;41.724;13.346;2024-01-06T05:13:41;3.13;;;1.17;;
51122;SDS011;37162;41.724;13.346;2024-01-06T05:16:07;1.58;;;0.90;;
51122;SDS011;37162;41.724;13.346;2024-01-06T05:18:33;2.72;;;1.10;;
51122;SDS011;37162;41.724;13.346;2024-01-06T05:20:58;3.40;;;1.33;;
51122;SDS011;37162;41.724;13.346;2024-01-06T05:23:24;1.55;;;1.13;;
51122;SDS011;37162;41.724;13.346;2024-01-06T05:25:49;2.88;;;1.50;;
51122;SDS011;37162;41.724;13.346;2024-01-06T05:28:15;3.50;;;1.58;;
51122;SDS011;37162;41.724;13.346;2024-01-06T05:30:40;2.55;;;1.13;;
51122;SDS011;37162;41.724;13.346;2024-01-06T05:33:08;3.35;;;1.30;;
51122;SDS011;37162;41.724;13.346;2024-01-06T05:35:34;4.15;;;1.65;;
51122;SDS011;37162;41.724;13.346;2024-01-06T05:38:00;3.05;;;1.35;;
51122;SDS011;37162;41.724;13.346;2024-01-06T05:40:26;3.63;;;1.17;;
51122;SDS011;37162;41.724;13.346;2024-01-06T05:42:51;2.40;;;1.80;;
51122;SDS011;37162;41.724;13.346;2024-01-06T05:45:20;3.42;;;1.40;;
51122;SDS011;37162;41.724;13.346;2024-01-06T05:47:46;3.63;;;1.33;;
51122;SDS011;37162;41.724;13.346;2024-01-06T05:50:11;2.75;;;1.30;;
51122;SDS011;37162;41.724;13.346;2024-01-06T05:52:40;6.35;;;1.33;;
51122;SDS011;37162;41.724;13.346;2024-01-06T05:55:06;7.15;;;1.40;;
51122;SDS011;37162;41.724;13.346;2024-01-06T05:57:32;3.10;;;1.20;;
51122;SDS011;37162;41.724;13.346;2024-01-06T05:59:57;5.28;;;1.60;;
51122;SDS011;37162;41.724;13.346;2024-01-06T06:02:24;4.57;;;1.27;;
51122;SDS011;37162;41.724;13.346;2024-01-06T06:04:49;3.55;;;1.48;;
51122;SDS011;37162;41.724;13.346;2024-01-06T06:07:15;2.03;;;1.58;;
51122;SDS011;37162;41.724;13.346;2024-01-06T06:09:40;3.30;;;1.33;;
51122;SDS011;37162;41.724;13.346;2024-01-06T06:12:06;2.13;;;1.30;;
51122;SDS011;37162;41.724;13.346;2024-01-06T06:14:31;3.60;;;1.67;;
51122;SDS011;37162;41.724;13.346;2024-01-06T06:16:57;3.88;;;1.42;;
51122;SDS011;37162;41.724;13.346;2024-01-06T06:19:22;2.83;;;1.50;;
51122;SDS011;37162;41.724;13.346;2024-01-06T06:21:48;2.90;;;1.45;;
51122;SDS011;37162;41.724;13.346;2024-01-06T06:24:13;3.20;;;1.27;;
51122;SDS011;37162;41.724;13.346;2024-01-06T06:26:38;6.95;;;1.70;;
51122;SDS011;37162;41.724;13.346;2024-01-06T06:29:04;2.22;;;1.52;;
51122;SDS011;37162;41.724;13.346;2024-01-06T06:31:29;4.22;;;1.88;;
51122;SDS011;37162;41.724;13.346;2024-01-06T06:33:55;2.03;;;1.35;;
51122;SDS011;37162;41.724;13.346;2024-01-06T06:36:20;2.63;;;1.80;;
51122;SDS011;37162;41.724;13.346;2024-01-06T06:38:46;5.22;;;1.63;;
51122;SDS011;37162;41.724;13.346;2024-01-06T06:41:11;3.28;;;1.45;;
51122;SDS011;37162;41.724;13.346;2024-01-06T06:43:37;2.97;;;1.50;;
51122;SDS011;37162;41.724;13.346;2024-01-06T06:46:02;3.33;;;1.55;;
51122;SDS011;37162;41.724;13.346;2024-01-06T06:48:28;5.53;;;1.65;;
51122;SDS011;37162;41.724;13.346;2024-01-06T06:50:54;1.63;;;1.10;;
51122;SDS011;37162;41.724;13.346;2024-01-06T06:53:20;2.97;;;1.50;;
51122;SDS011;37162;41.724;13.346;2024-01-06T06:55:45;2.35;;;1.42;;
51122;SDS011;37162;41.724;13.346;2024-01-06T06:58:11;3.88;;;1.75;;
51122;SDS011;37162;41.724;13.346;2024-01-06T07:00:37;4.57;;;1.58;;
51122;SDS011;37162;41.724;13.346;2024-01-06T07:03:03;2.40;;;1.38;;
51122;SDS011;37162;41.724;13.346;2024-01-06T07:05:28;4.35;;;2.00;;
51122;SDS011;37162;41.724;13.346;2024-01-06T07:07:54;1.58;;;1.25;;
51122;SDS011;37162;41.724;13.346;2024-01-06T07:10:20;4.25;;;1.20;;
51122;SDS011;37162;41.724;13.346;2024-01-06T07:12:45;2.53;;;1.27;;
51122;SDS011;37162;41.724;13.346;2024-01-06T07:15:11;4.97;;;1.60;;
51122;SDS011;37162;41.724;13.346;2024-01-06T07:17:37;3.55;;;1.55;;
51122;SDS011;37162;41.724;13.346;2024-01-06T07:20:03;1.95;;;1.10;;
51122;SDS011;37162;41.724;13.346;2024-01-06T07:22:32;3.22;;;1.52;;
51122;SDS011;37162;41.724;13.346;2024-01-06T07:24:59;2.15;;;1.17;;
51122;SDS011;37162;41.724;13.346;2024-01-06T07:27:25;2.78;;;1.10;;
51122;SDS011;37162;41.724;13.346;2024-01-06T07:29:50;3.17;;;1.45;;
51122;SDS011;37162;41.724;13.346;2024-01-06T07:32:16;2.97;;;1.30;;
51122;SDS011;37162;41.724;13.346;2024-01-06T07:34:41;1.75;;;1.30;;
51122;SDS011;37162;41.724;13.346;2024-01-06T07:37:08;1.77;;;1.00;;
51122;SDS011;37162;41.724;13.346;2024-01-06T07:39:33;2.22;;;1.30;;
51122;SDS011;37162;41.724;13.346;2024-01-06T07:41:59;2.15;;;1.10;;
51122;SDS011;37162;41.724;13.346;2024-01-06T07:44:24;1.27;;;1.00;;
51122;SDS011;37162;41.724;13.346;2024-01-06T07:46:50;1.67;;;1.10;;
51122;SDS011;37162;41.724;13.346;2024-01-06T07:49:16;1.48;;;1.05;;
51122;SDS011;37162;41.724;13.346;2024-01-06T07:51:42;1.55;;;1.00;;
51122;SDS011;37162;41.724;13.346;2024-01-06T07:54:07;1.58;;;0.90;;
51122;SDS011;37162;41.724;13.346;2024-01-06T07:56:34;3.42;;;1.30;;
51122;SDS011;37162;41.724;13.346;2024-01-06T07:59:03;1.58;;;1.10;;
51122;SDS011;37162;41.724;13.346;2024-01-06T08:01:29;2.28;;;1.27;;
51122;SDS011;37162;41.724;13.346;2024-01-06T08:03:55;1.80;;;1.23;;
51122;SDS011;37162;41.724;13.346;2024-01-06T08:06:20;3.20;;;1.20;;
51122;SDS011;37162;41.724;13.346;2024-01-06T08:08:46;3.15;;;1.55;;
51122;SDS011;37162;41.724;13.346;2024-01-06T08:11:11;1.20;;;0.90;;
51122;SDS011;37162;41.724;13.346;2024-01-06T08:13:37;3.15;;;0.90;;
51122;SDS011;37162;41.724;13.346;2024-01-06T08:16:03;1.95;;;1.00;;
51122;SDS011;37162;41.724;13.346;2024-01-06T08:18:29;1.75;;;1.08;;
51122;SDS011;37162;41.724;13.346;2024-01-06T08:20:55;2.25;;;1.40;;
51122;SDS011;37162;41.724;13.346;2024-01-06T08:23:20;1.75;;;1.05;;
51122;SDS011;37162;41.724;13.346;2024-01-06T08:25:46;1.55;;;1.00;;
51122;SDS011;37162;41.724;13.346;2024-01-06T08:28:12;3.25;;;1.38;;
51122;SDS011;37162;41.724;13.346;2024-01-06T08:30:39;2.10;;;1.08;;
51122;SDS011;37162;41.724;13.346;2024-01-06T08:33:05;1.40;;;1.23;;
51122;SDS011;37162;41.724;13.346;2024-01-06T08:35:30;2.50;;;1.23;;
51122;SDS011;37162;41.724;13.346;2024-01-06T08:37:56;3.20;;;1.58;;
51122;SDS011;37162;41.724;13.346;2024-01-06T08:40:22;1.77;;;1.02;;
51122;SDS011;37162;41.724;13.346;2024-01-06T08:42:47;1.65;;;1.20;;
51122;SDS011;37162;41.724;13.346;2024-01-06T08:45:15;2.83;;;1.30;;
51122;SDS011;37162;41.724;13.346;2024-01-06T08:47:40;1.58;;;1.02;;
51122;SDS011;37162;41.724;13.346;2024-01-06T08:50:06;2.05;;;1.10;;
51122;SDS011;37162;41.724;13.346;2024-01-06T08:52:32;3.42;;;1.20;;
51122;SDS011;37162;41.724;13.346;2024-01-06T08:54:58;3.60;;;1.00;;
51122;SDS011;37162;41.724;13.346;2024-01-06T08:57:23;5.57;;;1.17;;
51122;SDS011;37162;41.724;13.346;2024-01-06T08:59:48;2.38;;;1.00;;
51122;SDS011;37162;41.724;13.346;2024-01-06T09:02:14;4.40;;;0.95;;
51122;SDS011;37162;41.724;13.346;2024-01-06T09:04:39;1.92;;;1.10;;
51122;SDS011;37162;41.724;13.346;2024-01-06T09:07:05;1.55;;;1.10;;
51122;SDS011;37162;41.724;13.346;2024-01-06T09:09:31;2.90;;;1.13;;
51122;SDS011;37162;41.724;13.346;2024-01-06T09:11:56;2.08;;;1.15;;
51122;SDS011;37162;41.724;13.346;2024-01-06T09:14:21;4.38;;;1.45;;
51122;SDS011;37162;41.724;13.346;2024-01-06T09:16:47;2.63;;;1.08;;
51122;SDS011;37162;41.724;13.346;2024-01-06T09:19:12;1.92;;;1.10;;
51122;SDS011;37162;41.724;13.346;2024-01-06T09:21:38;4.18;;;1.23;;
51122;SDS011;37162;41.724;13.346;2024-01-06T09:24:03;3.42;;;1.20;;
51122;SDS011;37162;41.724;13.346;2024-01-06T09:26:31;2.17;;;1.00;;
51122;SDS011;37162;41.724;13.346;2024-01-06T09:28:59;2.38;;;1.25;;
51122;SDS011;37162;41.724;13.346;2024-01-06T09:31:25;3.63;;;1.23;;
51122;SDS011;37162;41.724;13.346;2024-01-06T09:33:50;2.00;;;1.20;;
51122;SDS011;37162;41.724;13.346;2024-01-06T09:36:16;1.55;;;0.98;;
51122;SDS011;37162;41.724;13.346;2024-01-06T09:38:42;2.22;;;1.00;;
51122;SDS011;37162;41.724;13.346;2024-01-06T09:41:07;1.27;;;0.85;;
51122;SDS011;37162;41.724;13.346;2024-01-06T09:43:33;2.40;;;1.10;;
51122;SDS011;37162;41.724;13.346;2024-01-06T09:46:21;2.47;;;0.98;;
51122;SDS011;37162;41.724;13.346;2024-01-06T09:48:51;2.00;;;1.10;;
51122;SDS011;37162;41.724;13.346;2024-01-06T09:51:21;2.85;;;1.30;;
51122;SDS011;37162;41.724;13.346;2024-01-06T09:54:09;2.03;;;1.05;;
51122;SDS011;37162;41.724;13.346;2024-01-06T09:56:34;2.08;;;1.38;;
51122;SDS011;37162;41.724;13.346;2024-01-06T09:59:00;1.92;;;0.85;;
51122;SDS011;37162;41.724;13.346;2024-01-06T10:01:27;1.05;;;0.90;;
51122;SDS011;37162;41.724;13.346;2024-01-06T10:03:52;2.70;;;1.48;;
51122;SDS011;37162;41.724;13.346;2024-01-06T10:06:18;2.08;;;1.13;;
51122;SDS011;37162;41.724;13.346;2024-01-06T10:08:48;2.53;;;1.30;;
51122;SDS011;37162;41.724;13.346;2024-01-06T10:11:15;1.13;;;0.90;;
51122;SDS011;37162;41.724;13.346;2024-01-06T10:13:40;1.23;;;0.90;;
51122;SDS011;37162;41.724;13.346;2024-01-06T10:16:06;2.28;;;0.95;;
51122;SDS011;37162;41.724;13.346;2024-01-06T10:18:32;1.08;;;0.85;;
51122;SDS011;37162;41.724;13.346;2024-01-06T10:20:58;2.50;;;0.80;;
51122;SDS011;37162;41.724;13.346;2024-01-06T10:23:28;1.88;;;1.23;;
51122;SDS011;37162;41.724;13.346;2024-01-06T10:25:54;1.00;;;0.90;;
51122;SDS011;37162;41.724;13.346;2024-01-06T10:28:21;1.40;;;0.88;;
51122;SDS011;37162;41.724;13.346;2024-01-06T10:30:47;1.83;;;1.10;;
51122;SDS011;37162;41.724;13.346;2024-01-06T10:33:14;1.83;;;1.13;;
51122;SDS011;37162;41.724;13.346;2024-01-06T10:35:40;1.40;;;1.08;;
51122;SDS011;37162;41.724;13.346;2024-01-06T10:38:06;2.05;;;1.17;;
51122;SDS011;37162;41.724;13.346;2024-01-06T10:40:32;2.00;;;0.93;;
51122;SDS011;37162;41.724;13.346;2024-01-06T10:42:58;1.45;;;0.80;;
51122;SDS011;37162;41.724;13.346;2024-01-06T10:45:25;1.08;;;0.93;;
51122;SDS011;37162;41.724;13.346;2024-01-06T10:47:55;0.85;;;0.77;;
51122;SDS011;37162;41.724;13.346;2024-01-06T10:50:21;1.52;;;0.90;;
51122;SDS011;37162;41.724;13.346;2024-01-06T10:52:47;1.23;;;0.90;;
51122;SDS011;37162;41.724;13.346;2024-01-06T10:55:14;1.65;;;1.27;;
51122;SDS011;37162;41.724;13.346;2024-01-06T10:57:43;0.77;;;0.77;;
51122;SDS011;37162;41.724;13.346;2024-01-06T11:00:10;1.73;;;1.20;;
51122;SDS011;37162;41.724;13.346;2024-01-06T11:02:35;2.78;;;1.20;;
51122;SDS011;37162;41.724;13.346;2024-01-06T11:05:02;5.75;;;1.20;;
51122;SDS011;37162;41.724;13.346;2024-01-06T11:07:32;2.85;;;1.27;;
51122;SDS011;37162;41.724;13.346;2024-01-06T11:12:25;1.13;;;1.02;;
51122;SDS011;37162;41.724;13.346;2024-01-06T11:14:51;1.55;;;1.10;;
51122;SDS011;37162;41.724;13.346;2024-01-06T11:20:18;1.27;;;0.90;;
51122;SDS011;37162;41.724;13.346;2024-01-06T11:22:44;1.92;;;1.20;;
51122;SDS011;37162;41.724;13.346;2024-01-06T11:25:14;3.13;;;1.20;;
51122;SDS011;37162;41.724;13.346;2024-01-06T11:27:49;1.48;;;1.10;;
51122;SDS011;37162;41.724;13.346;2024-01-06T11:30:22;1.90;;;1.10;;
51122;SDS011;37162;41.724;13.346;2024-01-06T11:32:53;1.77;;;1.20;;
51122;SDS011;37162;41.724;13.346;2024-01-06T11:35:26;3.33;;;1.42;;
51122;SDS011;37162;41.724;13.346;2024-01-06T11:37:54;1.90;;;1.23;;
51122;SDS011;37162;41.724;13.346;2024-01-06T11:42:56;3.05;;;1.30;;
51122;SDS011;37162;41.724;13.346;2024-01-06T11:45:30;1.98;;;1.20;;
51122;SDS011;37162;41.724;13.346;2024-01-06T11:47:58;3.72;;;1.15;;
51122;SDS011;37162;41.724;13.346;2024-01-06T11:50:25;1.20;;;1.02;;
51122;SDS011;37162;41.724;13.346;2024-01-06T11:52:52;1.83;;;1.15;;
51122;SDS011;37162;41.724;13.346;2024-01-06T11:55:18;2.33;;;1.35;;
51122;SDS011;37162;41.724;13.346;2024-01-06T11:57:44;2.13;;;1.40;;
51122;SDS011;37162;41.724;13.346;2024-01-06T12:00:10;1.50;;;0.98;;
51122;SDS011;37162;41.724;13.346;2024-01-06T12:02:36;1.83;;;1.25;;
51122;SDS011;37162;41.724;13.346;2024-01-06T12:05:01;1.05;;;0.90;;
51122;SDS011;37162;41.724;13.346;2024-01-06T12:07:27;1.00;;;0.82;;
51122;SDS011;37162;41.724;13.346;2024-01-06T12:10:00;1.60;;;1.02;;
51122;SDS011;37162;41.724;13.346;2024-01-06T12:12:26;1.27;;;1.02;;
51122;SDS011;37162;41.724;13.346;2024-01-06T12:14:52;2.28;;;1.25;;
51122;SDS011;37162;41.724;13.346;2024-01-06T12:17:17;2.13;;;1.30;;
51122;SDS011;37162;41.724;13.346;2024-01-06T12:19:46;1.48;;;1.38;;
51122;SDS011;37162;41.724;13.346;2024-01-06T12:22:12;1.77;;;1.27;;
51122;SDS011;37162;41.724;13.346;2024-01-06T12:24:39;1.83;;;1.23;;
51122;SDS011;37162;41.724;13.346;2024-01-06T12:27:06;1.83;;;1.30;;
51122;SDS011;37162;41.724;13.346;2024-01-06T12:29:36;2.10;;;1.10;;
51122;SDS011;37162;41.724;13.346;2024-01-06T12:32:05;2.42;;;1.25;;
51122;SDS011;37162;41.724;13.346;2024-01-06T12:34:32;1.30;;;1.20;;
51122;SDS011;37162;41.724;13.346;2024-01-06T12:36:57;1.98;;;1.40;;
51122;SDS011;37162;41.724;13.346;2024-01-06T12:39:23;1.65;;;1.38;;
51122;SDS011;37162;41.724;13.346;2024-01-06T12:41:52;2.13;;;1.45;;
51122;SDS011;37162;41.724;13.346;2024-01-06T12:44:22;1.70;;;1.30;;
51122;SDS011;37162;41.724;13.346;2024-01-06T12:46:48;2.75;;;1.65;;
51122;SDS011;37162;41.724;13.346;2024-01-06T12:49:14;3.25;;;1.63;;
51122;SDS011;37162;41.724;13.346;2024-01-06T12:51:39;1.85;;;1.60;;
51122;SDS011;37162;41.724;13.346;2024-01-06T12:54:05;3.72;;;1.60;;
51122;SDS011;37162;41.724;13.346;2024-01-06T12:56:30;4.13;;;1.80;;
51122;SDS011;37162;41.724;13.346;2024-01-06T12:58:56;1.80;;;1.67;;
51122;SDS011;37162;41.724;13.346;2024-01-06T13:01:22;1.60;;;1.50;;
51122;SDS011;37162;41.724;13.346;2024-01-06T13:03:47;3.67;;;1.77;;
51122;SDS011;37162;41.724;13.346;2024-01-06T13:06:13;3.00;;;2.22;;
51122;SDS011;37162;41.724;13.346;2024-01-06T13:08:40;3.90;;;2.53;;
51122;SDS011;37162;41.724;13.346;2024-01-06T13:11:07;3.40;;;2.25;;
51122;SDS011;37162;41.724;13.346;2024-01-06T13:13:32;4.50;;;2.70;;
51122;SDS011;37162;41.724;13.346;2024-01-06T13:15:58;4.38;;;3.20;;
51122;SDS011;37162;41.724;13.346;2024-01-06T13:18:23;5.32;;;2.85;;
51122;SDS011;37162;41.724;13.346;2024-01-06T13:20:49;3.85;;;3.00;;
51122;SDS011;37162;41.724;13.346;2024-01-06T13:23:14;4.25;;;3.20;;
51122;SDS011;37162;41.724;13.346;2024-01-06T13:25:40;4.43;;;2.83;;
51122;SDS011;37162;41.724;13.346;2024-01-06T13:28:06;4.88;;;2.83;;
51122;SDS011;37162;41.724;13.346;2024-01-06T13:30:32;5.38;;;3.30;;
51122;SDS011;37162;41.724;13.346;2024-01-06T13:33:01;4.00;;;2.67;;
51122;SDS011;37162;41.724;13.346;2024-01-06T13:35:27;4.53;;;3.58;;
51122;SDS011;37162;41.724;13.346;2024-01-06T13:37:54;5.60;;;3.28;;
51122;SDS011;37162;41.724;13.346;2024-01-06T13:40:22;6.75;;;3.20;;
51122;SDS011;37162;41.724;13.346;2024-01-06T13:42:49;5.05;;;3.60;;
51122;SDS011;37162;41.724;13.346;2024-01-06T13:45:19;4.47;;;3.00;;
51122;SDS011;37162;41.724;13.346;2024-01-06T13:47:45;5.43;;;3.60;;
51122;SDS011;37162;41.724;13.346;2024-01-06T13:50:16;3.95;;;2.63;;
51122;SDS011;37162;41.724;13.346;2024-01-06T13:52:45;4.15;;;3.35;;
51122;SDS011;37162;41.724;13.346;2024-01-06T13:55:11;5.20;;;3.63;;
51122;SDS011;37162;41.724;13.346;2024-01-06T13:57:36;5.78;;;4.30;;
51122;SDS011;37162;41.724;13.346;2024-01-06T14:00:07;4.95;;;3.70;;
51122;SDS011;37162;41.724;13.346;2024-01-06T14:02:33;4.18;;;3.25;;
51122;SDS011;37162;41.724;13.346;2024-01-06T14:04:59;5.70;;;4.43;;
51122;SDS011;37162;41.724;13.346;2024-01-06T14:07:24;5.10;;;3.65;;
51122;SDS011;37162;41.724;13.346;2024-01-06T14:09:51;4.72;;;3.45;;
51122;SDS011;37162;41.724;13.346;2024-01-06T14:12:17;4.82;;;3.45;;
51122;SDS011;37162;41.724;13.346;2024-01-06T14:14:43;6.50;;;3.65;;
51122;SDS011;37162;41.724;13.346;2024-01-06T14:17:10;4.50;;;3.55;;
51122;SDS011;37162;41.724;13.346;2024-01-06T14:19:36;5.25;;;3.88;;
51122;SDS011;37162;41.724;13.346;2024-01-06T14:22:01;5.00;;;3.60;;
51122;SDS011;37162;41.724;13.346;2024-01-06T14:24:29;5.60;;;3.97;;
51122;SDS011;37162;41.724;13.346;2024-01-06T14:26:55;7.07;;;4.53;;
51122;SDS011;37162;41.724;13.346;2024-01-06T14:29:21;6.47;;;4.40;;
51122;SDS011;37162;41.724;13.346;2024-01-06T14:31:46;6.25;;;4.53;;
51122;SDS011;37162;41.724;13.346;2024-01-06T14:34:13;5.90;;;3.67;;